createdAt,value
2019-05-23T00:00:43.724Z,0.00
2019-05-23T00:01:43.707Z,0.00
2019-05-23T00:02:43.750Z,0.00
2019-05-23T00:03:44.611Z,0.00
2019-05-23T00:04:43.681Z,0.00
2019-05-23T00:05:43.776Z,0.00
2019-05-23T00:06:43.651Z,0.00
2019-05-23T00:07:43.640Z,0.00
2019-05-23T00:08:43.638Z,0.00
2019-05-23T00:09:43.623Z,0.00
2019-05-23T00:10:43.652Z,0.00
2019-05-23T00:11:43.671Z,0.00
2019-05-23T00:12:43.589Z,0.00
2019-05-23T00:13:43.585Z,0.00
2019-05-23T00:14:43.567Z,0.00
2019-05-23T00:15:43.566Z,0.00
2019-05-23T00:16:43.586Z,0.00
2019-05-23T00:17:43.554Z,0.00
2019-05-23T00:18:43.522Z,0.00
2019-05-23T00:19:43.513Z,0.00
2019-05-23T00:20:43.504Z,0.00
2019-05-23T00:21:43.538Z,0.00
2019-05-23T00:22:43.487Z,0.00
2019-05-23T00:23:43.498Z,0.00
2019-05-23T00:24:43.519Z,0.00
2019-05-23T00:25:43.453Z,0.00
2019-05-23T00:26:43.488Z,0.00
2019-05-23T00:27:43.444Z,0.00
2019-05-23T00:28:43.423Z,0.00
2019-05-23T00:29:43.486Z,0.00
2019-05-23T00:30:43.393Z,0.00
2019-05-23T00:31:43.400Z,0.00
2019-05-23T00:32:43.383Z,0.00
2019-05-23T00:33:43.364Z,0.00
2019-05-23T00:34:43.391Z,0.00
2019-05-23T00:35:43.360Z,0.00
2019-05-23T00:36:43.330Z,0.00
2019-05-23T00:37:43.322Z,0.00
2019-05-23T00:38:43.356Z,0.00
2019-05-23T00:39:43.343Z,0.00
2019-05-23T00:40:43.291Z,0.00
2019-05-23T00:41:43.350Z,0.00
2019-05-23T00:42:43.274Z,0.00
2019-05-23T00:43:43.257Z,0.00
2019-05-23T00:44:43.256Z,0.00
2019-05-23T00:45:43.287Z,0.00
2019-05-23T00:46:43.232Z,0.00
2019-05-23T00:47:43.225Z,0.00
2019-05-23T00:48:43.208Z,0.00
2019-05-23T00:49:43.196Z,0.00
2019-05-23T00:50:43.236Z,0.00
2019-05-23T00:51:43.175Z,0.00
2019-05-23T00:52:43.167Z,0.00
2019-05-23T00:53:43.167Z,0.00
2019-05-23T00:54:43.202Z,0.00
2019-05-23T00:55:43.133Z,0.00
2019-05-23T00:56:43.135Z,0.00
2019-05-23T00:57:43.116Z,0.00
2019-05-23T00:58:43.107Z,0.00
2019-05-23T00:59:43.176Z,0.00
2019-05-23T01:00:43.087Z,0.00
2019-05-23T01:01:43.118Z,0.00
2019-05-23T01:02:43.065Z,0.00
2019-05-23T01:03:43.053Z,0.00
2019-05-23T01:04:43.089Z,0.00
2019-05-23T01:05:43.097Z,0.00
2019-05-23T01:06:43.045Z,0.00
2019-05-23T01:07:43.007Z,0.00
2019-05-23T01:08:43.042Z,0.00
2019-05-23T01:09:43.027Z,0.00
2019-05-23T01:10:42.973Z,0.00
2019-05-23T01:11:42.986Z,0.00
2019-05-23T01:12:42.957Z,0.00
2019-05-23T01:13:42.948Z,0.00
2019-05-23T01:14:42.983Z,0.00
2019-05-23T01:15:42.962Z,0.00
2019-05-23T01:16:42.910Z,0.00
2019-05-23T01:17:42.932Z,0.00
2019-05-23T01:18:42.962Z,0.00
2019-05-23T01:19:42.894Z,0.00
2019-05-23T01:20:42.916Z,0.00
2019-05-23T01:21:42.913Z,0.00
2019-05-23T01:22:42.849Z,0.00
2019-05-23T01:23:42.867Z,0.00
2019-05-23T01:24:42.828Z,0.00
2019-05-23T01:25:42.864Z,0.00
2019-05-23T01:26:42.811Z,0.00
2019-05-23T01:27:42.798Z,0.00
2019-05-23T01:28:42.793Z,0.00
2019-05-23T01:29:42.794Z,0.00
2019-05-23T01:30:42.813Z,0.00
2019-05-23T01:31:42.805Z,0.00
2019-05-23T01:32:42.747Z,0.00
2019-05-23T01:33:42.732Z,0.00
2019-05-23T01:34:42.724Z,0.00
2019-05-23T01:35:42.780Z,0.00
2019-05-23T01:36:42.709Z,0.00
2019-05-23T01:37:42.697Z,0.00
2019-05-23T01:38:42.682Z,0.00
2019-05-23T01:39:42.718Z,0.00
2019-05-23T01:40:42.715Z,0.00
2019-05-23T01:41:42.660Z,0.00
2019-05-23T01:42:42.638Z,0.00
2019-05-23T01:43:42.633Z,0.00
2019-05-23T01:44:42.629Z,0.00
2019-05-23T01:45:42.653Z,0.00
2019-05-23T01:46:42.603Z,0.00
2019-05-23T01:47:42.614Z,0.00
2019-05-23T01:48:42.632Z,0.00
2019-05-23T01:49:42.571Z,0.00
2019-05-23T01:50:42.597Z,0.00
2019-05-23T01:51:42.542Z,0.00
2019-05-23T01:52:42.538Z,0.00
2019-05-23T01:53:42.596Z,0.00
2019-05-23T01:54:42.515Z,0.00
2019-05-23T01:55:42.501Z,0.00
2019-05-23T01:56:42.549Z,0.00
2019-05-23T01:57:42.487Z,0.00
2019-05-23T01:58:42.520Z,0.00
2019-05-23T01:59:42.484Z,0.00
2019-05-23T02:00:42.454Z,0.00
2019-05-23T02:01:42.440Z,0.00
2019-05-23T02:02:42.429Z,0.00
2019-05-23T02:03:42.490Z,0.00
2019-05-23T02:04:42.441Z,0.00
2019-05-23T02:05:42.397Z,0.00
2019-05-23T02:06:42.415Z,0.00
2019-05-23T02:07:42.383Z,0.00
2019-05-23T02:08:42.429Z,0.00
2019-05-23T02:09:42.354Z,0.00
2019-05-23T02:10:42.355Z,0.00
2019-05-23T02:11:42.345Z,0.00
2019-05-23T02:12:42.332Z,0.00
2019-05-23T02:13:42.360Z,0.00
2019-05-23T02:14:42.357Z,0.00
2019-05-23T02:15:42.290Z,0.00
2019-05-23T02:16:42.313Z,0.00
2019-05-23T02:17:42.328Z,0.00
2019-05-23T02:18:42.268Z,0.00
2019-05-23T02:19:42.298Z,0.00
2019-05-23T02:20:42.242Z,0.00
2019-05-23T02:21:42.240Z,0.00
2019-05-23T02:22:42.246Z,0.00
2019-05-23T02:23:42.277Z,0.00
2019-05-23T02:24:42.251Z,0.00
2019-05-23T02:25:42.188Z,0.00
2019-05-23T02:26:42.198Z,0.00
2019-05-23T02:27:42.171Z,0.00
2019-05-23T02:28:42.231Z,0.00
2019-05-23T02:29:42.150Z,0.00
2019-05-23T02:30:42.149Z,0.00
2019-05-23T02:31:42.136Z,0.00
2019-05-23T02:32:42.117Z,0.00
2019-05-23T02:33:42.153Z,0.00
2019-05-23T02:34:42.135Z,0.00
2019-05-23T02:35:42.087Z,0.00
2019-05-23T02:36:42.084Z,0.00
2019-05-23T02:37:42.067Z,0.00
2019-05-23T02:38:42.099Z,0.00
2019-05-23T02:39:42.052Z,0.00
2019-05-23T02:40:42.062Z,0.00
2019-05-23T02:41:42.020Z,0.00
2019-05-23T02:42:42.056Z,0.00
2019-05-23T02:43:42.026Z,0.00
2019-05-23T02:44:42.002Z,0.00
2019-05-23T02:45:41.983Z,0.00
2019-05-23T02:46:42.003Z,0.00
2019-05-23T02:47:42.009Z,0.00
2019-05-23T02:48:41.964Z,0.00
2019-05-23T02:49:41.955Z,0.00
2019-05-23T02:50:41.937Z,0.00
2019-05-23T02:51:41.926Z,0.00
2019-05-23T02:52:41.986Z,0.00
2019-05-23T02:53:41.903Z,0.00
2019-05-23T02:54:41.889Z,0.00
2019-05-23T02:55:41.882Z,0.00
2019-05-23T02:56:41.911Z,0.00
2019-05-23T02:57:41.868Z,0.00
2019-05-23T02:58:41.876Z,0.00
2019-05-23T02:59:41.847Z,0.00
2019-05-23T03:00:53.526Z,0.00
2019-05-23T03:01:42.890Z,0.00
2019-05-23T03:02:41.817Z,0.00
2019-05-23T03:03:41.862Z,0.00
2019-05-23T03:04:41.843Z,0.00
2019-05-23T03:05:41.806Z,0.00
2019-05-23T03:06:41.767Z,0.00
2019-05-23T03:07:41.755Z,0.00
2019-05-23T03:08:41.828Z,0.00
2019-05-23T03:09:41.747Z,0.00
2019-05-23T03:10:41.821Z,0.00
2019-05-23T03:11:41.718Z,0.00
2019-05-23T03:12:41.732Z,0.00
2019-05-23T03:13:41.779Z,0.00
2019-05-23T03:14:41.694Z,0.00
2019-05-23T03:15:41.716Z,5.62
2019-05-23T03:16:41.657Z,5.62
2019-05-23T03:17:41.688Z,5.62
2019-05-23T03:18:41.687Z,5.62
2019-05-23T03:19:41.626Z,5.62
2019-05-23T03:20:41.625Z,5.62
2019-05-23T03:21:41.650Z,5.62
2019-05-23T03:22:41.601Z,5.62
2019-05-23T03:23:41.612Z,5.62
2019-05-23T03:24:41.578Z,5.62
2019-05-23T03:25:41.566Z,11.25
2019-05-23T03:26:41.592Z,11.25
2019-05-23T03:27:41.556Z,11.25
2019-05-23T03:28:41.531Z,11.25
2019-05-23T03:29:41.589Z,11.25
2019-05-23T03:30:41.613Z,11.25
2019-05-23T03:31:41.504Z,16.88
2019-05-23T03:32:41.492Z,16.88
2019-05-23T03:33:41.529Z,16.88
2019-05-23T03:34:41.472Z,16.88
2019-05-23T03:35:41.468Z,22.50
2019-05-23T03:36:41.559Z,22.50
2019-05-23T03:37:41.444Z,22.50
2019-05-23T03:38:41.478Z,22.50
2019-05-23T03:39:41.421Z,28.12
2019-05-23T03:40:41.418Z,28.12
2019-05-23T03:41:41.421Z,28.12
2019-05-23T03:42:41.436Z,28.12
2019-05-23T03:43:41.414Z,33.75
2019-05-23T03:44:41.367Z,33.75
2019-05-23T03:45:41.378Z,33.75
2019-05-23T03:46:41.352Z,39.38
2019-05-23T03:47:41.330Z,39.38
2019-05-23T03:48:41.432Z,45.00
2019-05-23T03:49:41.313Z,45.00
2019-05-23T03:50:41.309Z,45.00
2019-05-23T03:51:41.302Z,50.62
2019-05-23T03:52:41.289Z,50.62
2019-05-23T03:53:41.318Z,56.25
2019-05-23T03:54:41.350Z,56.25
2019-05-23T03:55:41.252Z,61.88
2019-05-23T03:56:41.239Z,61.88
2019-05-23T03:57:41.237Z,61.88
2019-05-23T03:58:41.225Z,67.50
2019-05-23T03:59:41.353Z,67.50
2019-05-23T04:00:41.207Z,67.50
2019-05-23T04:01:48.285Z,73.12
2019-05-23T04:02:42.189Z,73.12
2019-05-23T04:03:41.218Z,73.12
2019-05-23T04:04:41.160Z,73.12
2019-05-23T04:05:41.151Z,73.12
2019-05-23T04:06:41.190Z,73.12
2019-05-23T04:07:41.147Z,73.12
2019-05-23T04:08:41.116Z,73.12
2019-05-23T04:09:41.124Z,78.75
2019-05-23T04:10:41.108Z,78.75
2019-05-23T04:11:41.136Z,78.75
2019-05-23T04:12:41.080Z,78.75
2019-05-23T04:13:41.098Z,78.75
2019-05-23T04:14:41.052Z,78.75
2019-05-23T04:15:41.046Z,78.75
2019-05-23T04:16:41.033Z,78.75
2019-05-23T04:17:41.076Z,78.75
2019-05-23T04:18:41.021Z,78.75
2019-05-23T04:19:41.038Z,84.38
2019-05-23T04:20:41.001Z,84.38
2019-05-23T04:21:40.983Z,84.38
2019-05-23T04:22:41.130Z,84.38
2019-05-23T04:23:40.964Z,84.38
2019-05-23T04:24:40.951Z,84.38
2019-05-23T04:25:40.985Z,84.38
2019-05-23T04:26:41.011Z,84.38
2019-05-23T04:27:40.918Z,78.75
2019-05-23T04:28:40.908Z,78.75
2019-05-23T04:29:40.942Z,78.75
2019-05-23T04:30:40.888Z,84.38
2019-05-23T04:31:40.881Z,84.38
2019-05-23T04:32:40.871Z,84.38
2019-05-23T04:33:40.885Z,84.38
2019-05-23T04:34:40.918Z,84.38
2019-05-23T04:35:40.837Z,84.38
2019-05-23T04:36:40.828Z,84.38
2019-05-23T04:37:40.840Z,84.38
2019-05-23T04:38:40.835Z,84.38
2019-05-23T04:39:40.842Z,90.00
2019-05-23T04:40:40.837Z,90.00
2019-05-23T04:41:40.808Z,90.00
2019-05-23T04:42:40.806Z,90.00
2019-05-23T04:43:40.761Z,95.62
2019-05-23T04:44:43.968Z,95.62
2019-05-23T04:45:40.768Z,95.62
2019-05-23T04:46:40.718Z,101.25
2019-05-23T04:47:40.774Z,101.25
2019-05-23T04:48:40.701Z,106.88
2019-05-23T04:49:40.732Z,106.88
2019-05-23T04:50:41.589Z,106.88
2019-05-23T04:51:40.719Z,112.50
2019-05-23T04:52:40.696Z,112.50
2019-05-23T04:53:40.644Z,112.50
2019-05-23T04:54:40.647Z,112.50
2019-05-23T04:55:40.659Z,112.50
2019-05-23T04:56:40.665Z,118.12
2019-05-23T04:57:40.603Z,112.50
2019-05-23T04:58:40.597Z,118.12
2019-05-23T04:59:40.586Z,118.12
2019-05-23T05:00:40.638Z,118.12
2019-05-23T05:01:40.600Z,123.75
2019-05-23T05:02:40.544Z,123.75
2019-05-23T05:03:40.551Z,123.75
2019-05-23T05:04:40.601Z,123.75
2019-05-23T05:05:40.852Z,123.75
2019-05-23T05:06:40.512Z,123.75
2019-05-23T05:07:40.566Z,123.75
2019-05-23T05:08:40.494Z,129.38
2019-05-23T05:09:40.477Z,129.38
2019-05-23T05:10:40.462Z,129.38
2019-05-23T05:11:40.460Z,135.00
2019-05-23T05:12:40.489Z,129.38
2019-05-23T05:13:40.546Z,129.38
2019-05-23T05:14:40.434Z,135.00
2019-05-23T05:15:40.415Z,135.00
2019-05-23T05:16:40.402Z,135.00
2019-05-23T05:17:40.436Z,135.00
2019-05-23T05:18:40.381Z,135.00
2019-05-23T05:19:40.419Z,140.62
2019-05-23T05:20:40.373Z,140.62
2019-05-23T05:21:40.354Z,140.62
2019-05-23T05:22:40.393Z,140.62
2019-05-23T05:23:40.330Z,140.62
2019-05-23T05:24:40.527Z,146.25
2019-05-23T05:25:40.385Z,146.25
2019-05-23T05:26:40.350Z,146.25
2019-05-23T05:27:40.304Z,146.25
2019-05-23T05:28:40.274Z,146.25
2019-05-23T05:29:40.321Z,146.25
2019-05-23T05:30:40.307Z,146.25
2019-05-23T05:31:40.299Z,151.88
2019-05-23T05:32:44.870Z,151.88
2019-05-23T05:33:41.221Z,157.50
2019-05-23T05:34:40.251Z,157.50
2019-05-23T05:35:40.199Z,157.50
2019-05-23T05:36:40.189Z,157.50
2019-05-23T05:37:40.208Z,157.50
2019-05-23T05:38:40.169Z,157.50
2019-05-23T05:39:40.187Z,157.50
2019-05-23T05:40:40.225Z,157.50
2019-05-23T05:41:40.132Z,157.50
2019-05-23T05:42:40.185Z,151.88
2019-05-23T05:43:40.150Z,151.88
2019-05-23T05:44:40.165Z,151.88
2019-05-23T05:45:40.104Z,151.88
2019-05-23T05:46:40.261Z,151.88
2019-05-23T05:47:40.065Z,151.88
2019-05-23T05:48:40.082Z,151.88
2019-05-23T05:49:42.303Z,151.88
2019-05-23T05:50:40.040Z,157.50
2019-05-23T05:51:40.070Z,151.88
2019-05-23T05:52:40.017Z,151.88
2019-05-23T05:53:40.045Z,151.88
2019-05-23T05:54:39.993Z,151.88
2019-05-23T05:55:40.047Z,151.88
2019-05-23T05:56:39.975Z,151.88
2019-05-23T05:57:39.970Z,151.88
2019-05-23T05:58:40.004Z,151.88
2019-05-23T05:59:39.973Z,157.50
2019-05-23T06:00:39.936Z,157.50
2019-05-23T06:01:39.919Z,157.50
2019-05-23T06:02:39.909Z,157.50
2019-05-23T06:03:39.945Z,157.50
2019-05-23T06:04:39.933Z,157.50
2019-05-23T06:05:39.921Z,157.50
2019-05-23T06:06:39.866Z,157.50
2019-05-23T06:07:39.902Z,157.50
2019-05-23T06:08:39.850Z,163.12
2019-05-23T06:09:39.838Z,163.12
2019-05-23T06:10:39.863Z,163.12
2019-05-23T06:11:39.865Z,163.12
2019-05-23T06:12:39.803Z,163.12
2019-05-23T06:13:39.791Z,163.12
2019-05-23T06:14:39.797Z,168.75
2019-05-23T06:15:39.808Z,168.75
2019-05-23T06:16:39.794Z,168.75
2019-05-23T06:17:39.774Z,174.38
2019-05-23T06:18:39.740Z,174.38
2019-05-23T06:19:39.774Z,174.38
2019-05-23T06:20:40.938Z,174.38
2019-05-23T06:21:39.759Z,174.38
2019-05-23T06:22:39.697Z,180.00
2019-05-23T06:23:39.692Z,180.00
2019-05-23T06:24:47.883Z,180.00
2019-05-23T06:25:40.663Z,180.00
2019-05-23T06:26:39.718Z,180.00
2019-05-23T06:27:39.647Z,180.00
2019-05-23T06:28:39.631Z,180.00
2019-05-23T06:29:39.626Z,180.00
2019-05-23T06:30:39.708Z,180.00
2019-05-23T06:31:39.677Z,180.00
2019-05-23T06:32:39.593Z,180.00
2019-05-23T06:33:39.625Z,180.00
2019-05-23T06:34:39.568Z,180.00
2019-05-23T06:35:39.564Z,185.62
2019-05-23T06:36:39.573Z,185.62
2019-05-23T06:37:39.534Z,185.62
2019-05-23T06:38:39.571Z,185.62
2019-05-23T06:39:39.534Z,185.62
2019-05-23T06:40:39.693Z,185.62
2019-05-23T06:41:39.530Z,185.62
2019-05-23T06:42:39.491Z,185.62
2019-05-23T06:43:39.552Z,185.62
2019-05-23T06:44:39.476Z,185.62
2019-05-23T06:45:39.453Z,185.62
2019-05-23T06:46:39.494Z,185.62
2019-05-23T06:47:39.443Z,185.62
2019-05-23T06:48:39.465Z,185.62
2019-05-23T06:49:39.413Z,185.62
2019-05-23T06:50:39.398Z,185.62
2019-05-23T06:51:39.489Z,185.62
2019-05-23T06:52:39.376Z,191.25
2019-05-23T06:53:39.367Z,191.25
2019-05-23T06:54:39.358Z,191.25
2019-05-23T06:55:39.350Z,191.25
2019-05-23T06:56:39.396Z,191.25
2019-05-23T06:57:39.328Z,191.25
2019-05-23T06:58:39.315Z,191.25
2019-05-23T06:59:39.356Z,191.25
2019-05-23T07:00:39.293Z,191.25
2019-05-23T07:01:39.284Z,191.25
2019-05-23T07:02:39.330Z,191.25
2019-05-23T07:03:43.151Z,196.88
2019-05-23T07:04:39.298Z,196.88
2019-05-23T07:05:39.242Z,196.88
2019-05-23T07:06:39.284Z,196.88
2019-05-23T07:07:39.222Z,196.88
2019-05-23T07:08:39.205Z,196.88
2019-05-23T07:09:39.218Z,196.88
2019-05-23T07:10:39.197Z,196.88
2019-05-23T07:11:39.233Z,202.50
2019-05-23T07:12:39.195Z,202.50
2019-05-23T07:13:39.170Z,202.50
2019-05-23T07:14:39.158Z,202.50
2019-05-23T07:15:39.210Z,202.50
2019-05-23T07:16:39.184Z,208.12
2019-05-23T07:17:39.172Z,208.12
2019-05-23T07:18:39.110Z,208.12
2019-05-23T07:19:40.102Z,208.12
2019-05-23T07:20:39.142Z,208.12
2019-05-23T07:21:39.088Z,208.12
2019-05-23T07:22:39.085Z,208.12
2019-05-23T07:23:39.121Z,208.12
2019-05-23T07:24:55.181Z,208.12
2019-05-23T07:25:40.192Z,208.12
2019-05-23T07:26:39.050Z,208.12
2019-05-23T07:27:39.065Z,208.12
2019-05-23T07:28:39.041Z,213.75
2019-05-23T07:29:39.054Z,213.75
2019-05-23T07:30:38.971Z,213.75
2019-05-23T07:31:38.956Z,219.38
2019-05-23T07:32:38.954Z,219.38
2019-05-23T07:33:38.984Z,225.00
2019-05-23T07:34:38.929Z,225.00
2019-05-23T07:35:38.946Z,225.00
2019-05-23T07:36:38.951Z,225.00
2019-05-23T07:37:39.009Z,225.00
2019-05-23T07:38:38.908Z,230.62
2019-05-23T07:39:38.872Z,230.62
2019-05-23T07:40:38.913Z,236.25
2019-05-23T07:41:38.894Z,225.00
2019-05-23T07:42:38.844Z,225.00
2019-05-23T07:43:38.841Z,230.62
2019-05-23T07:44:47.892Z,230.62
2019-05-23T07:45:40.100Z,236.25
2019-05-23T07:46:38.836Z,236.25
2019-05-23T07:47:40.244Z,236.25
2019-05-23T07:48:38.781Z,236.25
2019-05-23T07:49:38.788Z,236.25
2019-05-23T07:50:38.772Z,236.25
2019-05-23T07:51:38.805Z,241.88
2019-05-23T07:52:38.764Z,241.88
2019-05-23T07:53:38.736Z,241.88
2019-05-23T07:54:38.716Z,241.88
2019-05-23T07:55:38.731Z,241.88
2019-05-23T07:56:38.748Z,241.88
2019-05-23T07:57:38.695Z,241.88
2019-05-23T07:58:38.738Z,241.88
2019-05-23T07:59:38.673Z,241.88
2019-05-23T08:00:38.661Z,241.88
2019-05-23T08:01:38.735Z,241.88
2019-05-23T08:02:38.677Z,241.88
2019-05-23T08:03:38.624Z,241.88
2019-05-23T08:04:38.601Z,247.50
2019-05-23T08:05:38.597Z,247.50
2019-05-23T08:06:38.672Z,241.88
2019-05-23T08:07:38.574Z,247.50
2019-05-23T08:08:38.561Z,241.88
2019-05-23T08:09:38.573Z,241.88
2019-05-23T08:10:38.555Z,241.88
2019-05-23T08:11:38.585Z,241.88
2019-05-23T08:12:38.517Z,241.88
2019-05-23T08:13:38.524Z,241.88
2019-05-23T08:14:38.509Z,247.50
2019-05-23T08:15:38.714Z,247.50
2019-05-23T08:16:38.536Z,247.50
2019-05-23T08:17:38.613Z,247.50
2019-05-23T08:18:38.497Z,247.50
2019-05-23T08:19:48.942Z,247.50
2019-05-23T08:20:39.453Z,253.12
2019-05-23T08:21:38.535Z,253.12
2019-05-23T08:22:38.415Z,253.12
2019-05-23T08:23:38.416Z,253.12
2019-05-23T08:24:38.420Z,253.12
2019-05-23T08:25:38.381Z,258.75
2019-05-23T08:26:38.432Z,258.75
2019-05-23T08:27:38.402Z,258.75
2019-05-23T08:28:56.302Z,258.75
2019-05-23T08:29:39.340Z,258.75
2019-05-23T08:30:38.332Z,264.38
2019-05-23T08:31:38.374Z,264.38
2019-05-23T08:32:38.420Z,264.38
2019-05-23T08:33:38.300Z,264.38
2019-05-23T08:34:42.194Z,264.38
2019-05-23T08:35:38.274Z,270.00
2019-05-23T08:36:38.259Z,264.38
2019-05-23T08:37:38.300Z,264.38
2019-05-23T08:38:38.281Z,270.00
2019-05-23T08:39:38.232Z,270.00
2019-05-23T08:40:38.270Z,270.00
2019-05-23T08:41:38.211Z,270.00
2019-05-23T08:42:38.196Z,270.00
2019-05-23T08:43:38.195Z,270.00
2019-05-23T08:44:38.195Z,275.62
2019-05-23T08:45:38.225Z,281.25
2019-05-23T08:46:38.163Z,281.25
2019-05-23T08:47:38.222Z,281.25
2019-05-23T08:48:38.182Z,281.25
2019-05-23T08:49:38.124Z,281.25
2019-05-23T08:50:39.105Z,286.88
2019-05-23T08:51:38.113Z,286.88
2019-05-23T08:52:38.141Z,286.88
2019-05-23T08:53:38.124Z,286.88
2019-05-23T08:54:38.097Z,292.50
2019-05-23T08:55:38.058Z,292.50
2019-05-23T08:56:38.098Z,292.50
2019-05-23T08:57:38.038Z,298.12
2019-05-23T08:58:38.135Z,298.12
2019-05-23T08:59:38.035Z,298.12
2019-05-23T09:00:38.193Z,303.75
2019-05-23T09:01:38.038Z,303.75
2019-05-23T09:02:37.988Z,303.75
2019-05-23T09:03:38.017Z,303.75
2019-05-23T09:04:37.967Z,303.75
2019-05-23T09:05:37.966Z,303.75
2019-05-23T09:06:37.972Z,303.75
2019-05-23T09:07:37.951Z,303.75
2019-05-23T09:08:38.019Z,303.75
2019-05-23T09:09:37.934Z,303.75
2019-05-23T09:10:37.919Z,303.75
2019-05-23T09:11:37.896Z,303.75
2019-05-23T09:12:37.916Z,309.38
2019-05-23T09:13:37.927Z,309.38
2019-05-23T09:14:38.010Z,315.00
2019-05-23T09:15:37.946Z,320.62
2019-05-23T09:16:37.843Z,320.62
2019-05-23T09:17:52.464Z,320.62
2019-05-23T09:18:38.857Z,315.00
2019-05-23T09:19:37.816Z,315.00
2019-05-23T09:20:37.825Z,309.38
2019-05-23T09:21:37.859Z,315.00
2019-05-23T09:22:37.779Z,320.62
2019-05-23T09:23:37.789Z,326.25
2019-05-23T09:24:37.759Z,326.25
2019-05-23T09:25:37.744Z,331.88
2019-05-23T09:26:37.777Z,331.88
2019-05-23T09:27:37.737Z,331.88
2019-05-23T09:28:37.713Z,337.50
2019-05-23T09:29:37.698Z,343.12
2019-05-23T09:30:37.690Z,348.75
2019-05-23T09:31:37.722Z,354.38
2019-05-23T09:32:37.672Z,365.62
2019-05-23T09:33:37.735Z,365.62
2019-05-23T09:34:37.649Z,365.62
2019-05-23T09:35:37.649Z,360.00
2019-05-23T09:36:37.628Z,360.00
2019-05-23T09:37:37.664Z,360.00
2019-05-23T09:38:37.617Z,354.38
2019-05-23T09:39:37.599Z,343.12
2019-05-23T09:40:37.682Z,343.12
2019-05-23T09:41:37.628Z,337.50
2019-05-23T09:42:37.576Z,331.88
2019-05-23T09:43:38.115Z,337.50
2019-05-23T09:44:37.599Z,343.12
2019-05-23T09:45:37.535Z,348.75
2019-05-23T09:46:37.555Z,354.38
2019-05-23T09:47:37.557Z,360.00
2019-05-23T09:48:37.614Z,365.62
2019-05-23T09:49:37.526Z,371.25
2019-05-23T09:50:37.574Z,371.25
2019-05-23T09:51:37.657Z,376.88
2019-05-23T09:52:37.463Z,382.50
2019-05-23T09:53:37.502Z,393.75
2019-05-23T09:54:37.446Z,405.00
2019-05-23T09:55:37.427Z,416.25
2019-05-23T09:56:37.469Z,427.50
2019-05-23T09:57:37.657Z,433.12
2019-05-23T09:58:37.411Z,444.38
2019-05-23T09:59:37.415Z,455.62
2019-05-23T10:00:37.379Z,461.25
2019-05-23T10:01:37.417Z,466.88
2019-05-23T10:02:37.482Z,466.88
2019-05-23T10:03:37.351Z,461.25
2019-05-23T10:04:37.380Z,450.00
2019-05-23T10:05:43.479Z,433.12
2019-05-23T10:06:38.311Z,427.50
2019-05-23T10:07:37.301Z,416.25
2019-05-23T10:08:37.295Z,421.88
2019-05-23T10:09:37.344Z,438.75
2019-05-23T10:10:37.272Z,438.75
2019-05-23T10:11:37.284Z,455.62
2019-05-23T10:12:37.248Z,455.62
2019-05-23T10:13:39.484Z,461.25
2019-05-23T10:14:37.305Z,466.88
2019-05-23T10:15:37.214Z,466.88
2019-05-23T10:16:37.227Z,455.62
2019-05-23T10:17:37.210Z,427.50
2019-05-23T10:18:37.269Z,455.62
2019-05-23T10:19:37.170Z,455.62
2019-05-23T10:20:37.188Z,466.88
2019-05-23T10:21:37.190Z,472.50
2019-05-23T10:22:37.141Z,472.50
2019-05-23T10:23:37.174Z,478.12
2019-05-23T10:24:37.124Z,483.75
2019-05-23T10:25:37.184Z,500.62
2019-05-23T10:26:37.091Z,506.25
2019-05-23T10:27:37.080Z,506.25
2019-05-23T10:28:37.079Z,511.88
2019-05-23T10:29:37.073Z,523.12
2019-05-23T10:30:37.097Z,534.38
2019-05-23T10:31:37.077Z,517.50
2019-05-23T10:32:37.045Z,540.00
2019-05-23T10:33:37.045Z,551.25
2019-05-23T10:34:37.053Z,562.50
2019-05-23T10:35:37.012Z,573.75
2019-05-23T10:36:37.055Z,573.75
2019-05-23T10:37:36.986Z,573.75
2019-05-23T10:38:37.014Z,573.75
2019-05-23T10:39:37.052Z,573.75
2019-05-23T10:40:36.950Z,573.75
2019-05-23T10:41:37.014Z,568.12
2019-05-23T10:42:36.927Z,562.50
2019-05-23T10:43:36.959Z,562.50
2019-05-23T10:44:36.927Z,551.25
2019-05-23T10:45:36.895Z,551.25
2019-05-23T10:46:36.893Z,573.75
2019-05-23T10:47:37.133Z,545.62
2019-05-23T10:48:36.862Z,478.12
2019-05-23T10:49:36.865Z,534.38
2019-05-23T10:50:44.742Z,646.88
2019-05-23T10:51:37.873Z,663.75
2019-05-23T10:52:36.883Z,1170.00
2019-05-23T10:53:36.884Z,2283.75
2019-05-23T10:54:36.835Z,2531.25
2019-05-23T10:55:36.803Z,2536.88
2019-05-23T10:56:36.811Z,2542.50
2019-05-23T10:57:36.781Z,2340.00
2019-05-23T10:58:36.833Z,2261.25
2019-05-23T10:59:36.770Z,2430.00
2019-05-23T11:00:36.731Z,2430.00
2019-05-23T11:01:36.730Z,2525.62
2019-05-23T11:02:36.730Z,770.62
2019-05-23T11:03:36.759Z,686.25
2019-05-23T11:04:36.770Z,2396.25
2019-05-23T11:05:36.725Z,2390.62
2019-05-23T11:06:36.673Z,624.38
2019-05-23T11:07:36.691Z,641.25
2019-05-23T11:08:36.721Z,731.25
2019-05-23T11:09:38.519Z,2373.75
2019-05-23T11:10:36.636Z,2160.00
2019-05-23T11:11:36.652Z,1670.62
2019-05-23T11:12:36.622Z,1771.88
2019-05-23T11:13:36.655Z,1940.62
2019-05-23T11:14:36.803Z,1192.50
2019-05-23T11:15:36.597Z,1350.00
2019-05-23T11:16:36.618Z,1378.12
2019-05-23T11:17:36.577Z,2424.38
2019-05-23T11:18:36.609Z,2373.75
2019-05-23T11:19:36.577Z,2458.12
2019-05-23T11:20:36.580Z,2098.12
2019-05-23T11:21:36.563Z,2480.62
2019-05-23T11:22:36.563Z,2373.75
2019-05-23T11:23:36.516Z,2587.50
2019-05-23T11:24:36.506Z,2683.12
2019-05-23T11:25:36.561Z,2733.75
2019-05-23T11:26:36.518Z,2716.88
2019-05-23T11:27:36.570Z,2722.50
2019-05-23T11:28:36.480Z,2705.62
2019-05-23T11:29:36.478Z,2705.62
2019-05-23T11:30:36.438Z,2778.75
2019-05-23T11:31:36.460Z,2716.88
2019-05-23T11:32:36.459Z,2705.62
2019-05-23T11:33:36.486Z,2728.12
2019-05-23T11:34:36.435Z,1440.00
2019-05-23T11:35:36.386Z,849.38
2019-05-23T11:36:37.115Z,1895.62
2019-05-23T11:37:36.369Z,1513.12
2019-05-23T11:38:36.411Z,1822.50
2019-05-23T11:39:42.219Z,1006.88
2019-05-23T11:40:37.362Z,742.50
2019-05-23T11:41:36.371Z,714.38
2019-05-23T11:42:36.339Z,1456.88
2019-05-23T11:43:36.314Z,2019.38
2019-05-23T11:44:36.325Z,1153.12
2019-05-23T11:45:45.142Z,753.75
2019-05-23T11:46:37.405Z,2216.25
2019-05-23T11:47:36.280Z,731.25
2019-05-23T11:48:36.249Z,658.12
2019-05-23T11:49:36.252Z,855.00
2019-05-23T11:50:36.223Z,2266.88
2019-05-23T11:51:36.348Z,1136.25
2019-05-23T11:52:36.213Z,1108.12
2019-05-23T11:53:36.238Z,2407.50
2019-05-23T11:54:36.182Z,2553.75
2019-05-23T11:55:36.222Z,2536.88
2019-05-23T11:56:36.529Z,2576.25
2019-05-23T11:57:37.829Z,2570.62
2019-05-23T11:58:36.163Z,2520.00
2019-05-23T11:59:36.126Z,1811.25
2019-05-23T12:00:36.172Z,990.00
2019-05-23T12:01:36.171Z,1890.00
2019-05-23T12:02:36.103Z,736.88
2019-05-23T12:03:36.105Z,697.50
2019-05-23T12:04:36.089Z,686.25
2019-05-23T12:05:36.149Z,697.50
2019-05-23T12:06:53.637Z,956.25
2019-05-23T12:07:37.089Z,1248.75
2019-05-23T12:08:36.059Z,2221.88
2019-05-23T12:09:36.029Z,2193.75
2019-05-23T12:10:36.115Z,1980.00
2019-05-23T12:11:41.912Z,2413.12
2019-05-23T12:12:37.004Z,2435.62
2019-05-23T12:13:35.998Z,2401.88
2019-05-23T12:14:36.002Z,2064.38
2019-05-23T12:15:36.139Z,2283.75
2019-05-23T12:16:35.964Z,2368.12
2019-05-23T12:17:36.002Z,2317.50
2019-05-23T12:18:35.980Z,2430.00
2019-05-23T12:19:36.056Z,2469.38
2019-05-23T12:20:35.926Z,2345.62
2019-05-23T12:21:35.908Z,2238.75
2019-05-23T12:22:35.959Z,2250.00
2019-05-23T12:23:35.957Z,2210.62
2019-05-23T12:24:36.072Z,2266.88
2019-05-23T12:25:35.868Z,2334.38
2019-05-23T12:26:35.973Z,2480.62
2019-05-23T12:27:35.848Z,2351.25
2019-05-23T12:28:35.897Z,1800.00
2019-05-23T12:29:35.859Z,978.75
2019-05-23T12:30:35.813Z,995.62
2019-05-23T12:31:35.897Z,2126.25
2019-05-23T12:32:35.790Z,1170.00
2019-05-23T12:33:35.837Z,1209.38
2019-05-23T12:34:35.773Z,2345.62
2019-05-23T12:35:35.777Z,2238.75
2019-05-23T12:36:35.755Z,2475.00
2019-05-23T12:37:35.745Z,2632.50
2019-05-23T12:38:35.774Z,2581.88
2019-05-23T12:39:35.729Z,2542.50
2019-05-23T12:40:35.872Z,2514.38
2019-05-23T12:41:35.746Z,2615.62